createdAt,value
2023-03-29T00:00:35.678Z,57.04
2023-03-29T00:03:04.169Z,57.65
2023-03-29T00:05:34.033Z,56.96
2023-03-29T00:08:04.301Z,59.57
2023-03-29T00:10:36.136Z,58.93
2023-03-29T00:13:04.224Z,58.12
2023-03-29T00:15:32.133Z,57.84
2023-03-29T00:18:00.010Z,57.79
2023-03-29T00:20:28.843Z,57.86
2023-03-29T00:22:56.918Z,57.05
2023-03-29T00:25:24.882Z,57.50
2023-03-29T00:27:54.102Z,57.41
2023-03-29T00:30:21.985Z,57.81
2023-03-29T00:32:49.999Z,56.79
2023-03-29T00:35:18.462Z,57.46
2023-03-29T00:37:47.198Z,57.30
2023-03-29T00:40:15.831Z,56.93
2023-03-29T00:42:46.176Z,57.05
2023-03-29T00:45:25.230Z,57.15
2023-03-29T00:47:57.088Z,57.58
2023-03-29T00:50:30.860Z,56.87
2023-03-29T00:53:04.674Z,56.41
2023-03-29T00:55:38.648Z,56.61
2023-03-29T00:58:09.960Z,57.31
2023-03-29T01:00:44.435Z,57.35
2023-03-29T01:03:24.693Z,57.53
2023-03-29T01:05:57.706Z,57.49
2023-03-29T01:08:30.616Z,57.39
2023-03-29T01:11:04.777Z,57.23
2023-03-29T01:13:39.423Z,58.44
2023-03-29T01:16:12.250Z,58.60
2023-03-29T01:18:41.937Z,57.33
2023-03-29T01:21:23.526Z,57.04
2023-03-29T01:24:07.906Z,57.42
2023-03-29T01:26:46.746Z,57.74
2023-03-29T01:29:21.424Z,58.48
2023-03-29T01:31:53.553Z,57.59
2023-03-29T01:34:27.694Z,57.14
2023-03-29T01:37:01.510Z,57.55
2023-03-29T01:39:29.405Z,57.07
2023-03-29T01:42:09.665Z,57.58
2023-03-29T01:44:47.345Z,57.97
2023-03-29T01:47:25.990Z,58.05
2023-03-29T01:50:02.606Z,57.93
2023-03-29T01:52:36.181Z,58.34
2023-03-29T01:55:11.276Z,58.00
2023-03-29T01:57:41.534Z,57.81
2023-03-29T02:00:15.106Z,58.21
2023-03-29T02:02:46.133Z,57.35
2023-03-29T02:05:16.298Z,57.42
2023-03-29T02:07:46.790Z,56.72
2023-03-29T02:10:16.883Z,56.72
2023-03-29T02:12:44.914Z,57.10
2023-03-29T02:15:16.119Z,57.49
2023-03-29T02:17:46.363Z,56.80
2023-03-29T02:20:22.236Z,56.96
2023-03-29T02:22:59.623Z,57.06
2023-03-29T02:25:27.684Z,57.12
2023-03-29T02:27:55.941Z,56.71
2023-03-29T02:30:31.630Z,57.09
2023-03-29T02:33:05.876Z,56.53
2023-03-29T02:35:38.565Z,56.56
2023-03-29T02:38:11.544Z,56.92
2023-03-29T02:40:42.626Z,56.70
2023-03-29T02:43:12.689Z,56.50
2023-03-29T02:45:42.922Z,56.02
2023-03-29T02:48:13.609Z,56.62
2023-03-29T02:50:44.439Z,56.49
2023-03-29T02:53:17.967Z,57.20
2023-03-29T02:55:49.197Z,56.92
2023-03-29T02:58:17.088Z,57.47
2023-03-29T03:00:49.274Z,57.22
2023-03-29T03:03:17.315Z,57.61
2023-03-29T03:05:49.141Z,57.24
2023-03-29T03:08:17.044Z,57.21
2023-03-29T03:10:45.804Z,57.89
2023-03-29T03:13:13.759Z,57.65
2023-03-29T03:15:42.878Z,56.66
2023-03-29T03:18:12.721Z,57.46
2023-03-29T03:20:40.918Z,57.55
2023-03-29T03:23:10.732Z,57.60
2023-03-29T03:25:38.784Z,58.37
2023-03-29T03:28:06.900Z,58.66
2023-03-29T03:30:34.933Z,58.14
2023-03-29T03:33:19.830Z,59.34
2023-03-29T03:36:14.469Z,58.22
2023-03-29T03:38:45.143Z,59.03
2023-03-29T03:41:13.643Z,58.32
2023-03-29T03:43:43.877Z,57.55
2023-03-29T03:46:12.351Z,58.02
2023-03-29T03:48:43.051Z,58.63
2023-03-29T03:51:17.679Z,57.74
2023-03-29T03:53:46.637Z,57.53
2023-03-29T03:56:14.852Z,56.99
2023-03-29T03:59:01.244Z,56.95
2023-03-29T04:01:35.326Z,57.00
2023-03-29T04:04:14.738Z,57.40
2023-03-29T04:06:53.484Z,57.30
2023-03-29T04:09:43.168Z,57.27
2023-03-29T04:12:22.176Z,57.40
2023-03-29T04:14:50.889Z,57.38
2023-03-29T04:17:22.958Z,57.42
2023-03-29T04:19:57.738Z,57.77
2023-03-29T04:22:28.341Z,56.71
2023-03-29T04:24:56.310Z,56.71
2023-03-29T04:27:42.664Z,57.56
2023-03-29T04:30:21.998Z,58.35
2023-03-29T04:33:09.523Z,57.55
2023-03-29T04:35:41.294Z,57.69
2023-03-29T04:38:13.787Z,57.45
2023-03-29T04:40:44.411Z,56.56
2023-03-29T04:43:32.602Z,57.13
2023-03-29T04:46:10.252Z,56.84
2023-03-29T04:49:01.025Z,58.38
2023-03-29T04:51:36.649Z,57.36
2023-03-29T04:54:04.793Z,57.43
2023-03-29T04:56:42.201Z,56.99
2023-03-29T04:59:30.612Z,56.57
2023-03-29T05:01:58.578Z,56.18
2023-03-29T05:04:28.454Z,56.51
2023-03-29T05:07:06.619Z,55.67
2023-03-29T05:09:35.673Z,57.16
2023-03-29T05:12:05.822Z,57.52
2023-03-29T05:14:46.740Z,57.03
2023-03-29T05:17:14.871Z,57.04
2023-03-29T05:19:43.449Z,57.85
2023-03-29T05:22:12.973Z,57.78
2023-03-29T05:24:42.132Z,57.70
2023-03-29T05:27:18.092Z,57.87
2023-03-29T05:29:58.526Z,57.72
2023-03-29T05:32:37.334Z,57.36
2023-03-29T05:35:06.860Z,57.24
2023-03-29T05:37:37.003Z,56.51
2023-03-29T05:40:10.044Z,57.44
2023-03-29T05:42:54.389Z,56.78
2023-03-29T05:45:23.028Z,57.44
2023-03-29T05:47:51.875Z,55.99
2023-03-29T05:50:19.913Z,56.33
2023-03-29T05:52:50.848Z,55.46
2023-03-29T05:55:19.560Z,55.10
2023-03-29T05:57:47.694Z,54.40
2023-03-29T06:00:23.417Z,55.45
2023-03-29T06:03:03.698Z,54.81
2023-03-29T06:05:39.292Z,54.83
2023-03-29T06:08:09.924Z,55.51
2023-03-29T06:11:16.610Z,54.83
2023-03-29T06:14:07.693Z,54.78
2023-03-29T06:16:42.818Z,52.73
2023-03-29T06:19:11.877Z,53.32
2023-03-29T06:21:41.288Z,52.92
2023-03-29T06:24:13.456Z,52.77
2023-03-29T06:26:47.033Z,52.19
2023-03-29T06:29:15.692Z,52.88
2023-03-29T06:31:45.400Z,52.14
2023-03-29T06:34:31.046Z,52.52
2023-03-29T06:37:19.034Z,52.54
2023-03-29T06:39:53.363Z,52.11
2023-03-29T06:42:26.837Z,50.93
2023-03-29T06:45:23.265Z,52.18
2023-03-29T06:47:52.501Z,51.26
2023-03-29T06:50:20.707Z,51.09
2023-03-29T06:52:55.031Z,51.27
2023-03-29T06:55:24.412Z,52.17
2023-03-29T06:57:54.686Z,50.95
2023-03-29T07:00:28.761Z,51.61
2023-03-29T07:03:09.923Z,50.61
2023-03-29T07:05:40.854Z,49.60
2023-03-29T07:08:16.251Z,49.57
2023-03-29T07:10:58.516Z,48.91
2023-03-29T07:13:46.331Z,49.61
2023-03-29T07:16:19.321Z,49.67
2023-03-29T07:19:13.309Z,49.77
2023-03-29T07:21:56.476Z,49.32
2023-03-29T07:24:35.582Z,48.94
2023-03-29T07:27:05.117Z,49.32
2023-03-29T07:29:34.399Z,48.12
2023-03-29T07:32:02.332Z,47.83
2023-03-29T07:34:42.155Z,49.78
2023-03-29T07:37:15.228Z,49.03
2023-03-29T07:39:45.877Z,48.43
2023-03-29T07:42:30.258Z,49.23
2023-03-29T07:44:58.699Z,48.66
2023-03-29T07:47:32.972Z,47.95
2023-03-29T07:50:00.968Z,48.67
2023-03-29T07:52:30.089Z,47.37
2023-03-29T07:54:58.900Z,47.53
2023-03-29T07:57:53.600Z,46.70
2023-03-29T08:00:24.927Z,47.27
2023-03-29T08:03:13.677Z,46.12
2023-03-29T08:05:43.236Z,47.21
2023-03-29T08:08:14.121Z,47.18
2023-03-29T08:11:09.025Z,48.73
2023-03-29T08:14:01.345Z,47.07
2023-03-29T08:16:56.396Z,47.13
2023-03-29T08:19:24.460Z,45.54
2023-03-29T08:22:04.698Z,45.24
2023-03-29T08:24:52.956Z,46.67
2023-03-29T08:27:23.133Z,46.76
2023-03-29T08:29:52.823Z,45.56
2023-03-29T08:32:21.139Z,46.48
2023-03-29T08:34:50.142Z,46.01
2023-03-29T08:37:33.120Z,45.71
2023-03-29T08:40:01.647Z,45.24
2023-03-29T08:43:14.930Z,44.72
2023-03-29T08:46:17.887Z,44.48
2023-03-29T08:48:51.362Z,44.40
2023-03-29T08:51:25.247Z,43.87
2023-03-29T08:53:56.826Z,42.39
2023-03-29T08:56:59.182Z,42.12
2023-03-29T08:59:33.160Z,43.65
2023-03-29T09:02:13.845Z,43.74
2023-03-29T09:04:43.722Z,43.39
2023-03-29T09:07:34.646Z,44.76
2023-03-29T09:10:03.497Z,44.71
2023-03-29T09:12:54.590Z,44.00
2023-03-29T09:15:29.429Z,45.21
2023-03-29T09:18:16.543Z,43.90
2023-03-29T09:20:51.745Z,44.48
2023-03-29T09:23:40.093Z,44.58
2023-03-29T09:26:42.959Z,45.92
2023-03-29T09:29:47.767Z,43.63
2023-03-29T09:32:22.397Z,43.99
2023-03-29T09:35:08.738Z,44.71
2023-03-29T09:37:39.691Z,45.16
2023-03-29T09:40:14.610Z,44.69
2023-03-29T09:42:58.888Z,44.79
2023-03-29T09:45:27.111Z,42.63
2023-03-29T09:48:00.169Z,44.50
2023-03-29T09:50:37.454Z,43.39
2023-03-29T09:53:09.426Z,44.46
2023-03-29T09:55:40.925Z,42.63
2023-03-29T09:58:24.737Z,41.98
2023-03-29T10:00:55.437Z,43.65
2023-03-29T10:03:26.528Z,43.48
2023-03-29T10:06:07.388Z,41.03
2023-03-29T10:08:40.731Z,42.32
2023-03-29T10:11:14.050Z,41.78
2023-03-29T10:13:47.262Z,39.90
2023-03-29T10:16:21.302Z,39.60
2023-03-29T10:18:50.645Z,39.88
2023-03-29T10:21:21.246Z,40.01
2023-03-29T10:23:50.958Z,39.15
2023-03-29T10:26:26.029Z,39.42
2023-03-29T10:28:57.216Z,39.15
2023-03-29T10:31:26.173Z,39.54
2023-03-29T10:33:56.744Z,39.52
2023-03-29T10:36:28.219Z,40.00
2023-03-29T10:38:59.696Z,40.99
2023-03-29T10:41:29.720Z,41.40
2023-03-29T10:43:57.575Z,39.79
2023-03-29T10:46:30.617Z,40.88
2023-03-29T10:49:00.449Z,44.10
2023-03-29T10:51:31.184Z,44.44
2023-03-29T10:53:59.639Z,42.79
2023-03-29T10:56:39.095Z,42.69
2023-03-29T10:59:29.745Z,43.35
2023-03-29T11:02:29.008Z,42.47
2023-03-29T11:05:09.167Z,43.62
2023-03-29T11:07:47.617Z,43.11
2023-03-29T11:10:30.105Z,45.52
2023-03-29T11:13:05.852Z,45.61
2023-03-29T11:15:45.281Z,44.23
2023-03-29T11:18:37.189Z,44.44
2023-03-29T11:21:15.322Z,44.81
2023-03-29T11:23:53.827Z,42.56
2023-03-29T11:26:27.100Z,42.51
2023-03-29T11:29:01.328Z,44.25
2023-03-29T11:31:38.847Z,43.78
2023-03-29T11:34:25.302Z,43.47
2023-03-29T11:37:01.058Z,44.37
2023-03-29T11:39:41.670Z,42.95
2023-03-29T11:42:17.685Z,44.72
2023-03-29T11:44:48.379Z,45.38
2023-03-29T11:47:21.623Z,45.22
2023-03-29T11:49:56.163Z,45.89
2023-03-29T11:52:30.208Z,45.10
2023-03-29T11:55:04.046Z,42.84
2023-03-29T11:57:36.366Z,43.18
2023-03-29T12:00:08.275Z,43.06
2023-03-29T12:02:46.207Z,42.45
2023-03-29T12:05:21.186Z,42.33
2023-03-29T12:07:54.635Z,41.96
2023-03-29T12:10:26.586Z,41.84
2023-03-29T12:13:01.718Z,41.79
2023-03-29T12:15:34.670Z,42.83
2023-03-29T12:18:08.425Z,41.71
2023-03-29T12:20:39.347Z,41.56
2023-03-29T12:23:14.011Z,42.89
2023-03-29T12:25:53.626Z,43.19
2023-03-29T12:28:34.530Z,42.54
2023-03-29T12:31:13.088Z,42.04
2023-03-29T12:34:14.524Z,41.16
2023-03-29T12:37:25.782Z,40.90
2023-03-29T12:40:15.582Z,41.58
2023-03-29T12:43:07.525Z,42.71
2023-03-29T12:46:09.410Z,42.05
2023-03-29T12:48:41.470Z,42.03
2023-03-29T12:51:14.250Z,42.46
2023-03-29T12:53:45.274Z,41.68
2023-03-29T12:56:16.812Z,43.28
2023-03-29T12:58:56.450Z,43.10
2023-03-29T13:01:28.644Z,42.63
2023-03-29T13:03:59.058Z,42.54
2023-03-29T13:06:33.065Z,41.50
2023-03-29T13:09:22.068Z,43.13
2023-03-29T13:11:53.665Z,42.95
2023-03-29T13:14:26.670Z,42.94
2023-03-29T13:16:55.178Z,42.29
2023-03-29T13:19:32.824Z,41.26
2023-03-29T13:22:12.281Z,43.02
2023-03-29T13:25:02.288Z,41.41
2023-03-29T13:27:39.540Z,41.01
2023-03-29T13:30:34.456Z,41.63
2023-03-29T13:33:21.370Z,42.56
2023-03-29T13:35:56.359Z,44.24
2023-03-29T13:38:28.726Z,43.55
2023-03-29T13:41:04.705Z,44.22
2023-03-29T13:43:35.821Z,42.58
2023-03-29T13:46:21.223Z,42.10
2023-03-29T13:48:55.039Z,42.27
2023-03-29T13:51:32.706Z,42.83
2023-03-29T13:54:08.026Z,43.84
2023-03-29T13:56:41.637Z,42.60
2023-03-29T13:59:15.926Z,42.36
2023-03-29T14:01:53.465Z,42.33
2023-03-29T14:04:25.691Z,42.31
2023-03-29T14:06:56.102Z,42.44
2023-03-29T14:09:30.832Z,42.03
2023-03-29T14:12:00.799Z,42.94
2023-03-29T14:14:32.093Z,43.78
2023-03-29T14:17:02.288Z,43.54
2023-03-29T14:19:32.967Z,43.74
2023-03-29T14:22:02.713Z,44.26
2023-03-29T14:24:38.331Z,43.49
2023-03-29T14:27:10.118Z,43.63
2023-03-29T14:29:38.616Z,44.95
2023-03-29T14:32:12.633Z,45.28
2023-03-29T14:34:41.160Z,45.69
2023-03-29T14:37:12.687Z,45.41
2023-03-29T14:39:42.263Z,46.14
2023-03-29T14:42:16.979Z,45.49
2023-03-29T14:44:45.707Z,44.95
2023-03-29T14:47:21.708Z,45.92
2023-03-29T14:49:49.956Z,45.47
2023-03-29T14:52:19.964Z,46.23
2023-03-29T14:54:51.986Z,46.15
2023-03-29T14:57:24.040Z,45.99
2023-03-29T14:59:55.696Z,46.79
2023-03-29T15:02:27.223Z,46.33
2023-03-29T15:05:03.469Z,46.22
2023-03-29T15:07:33.531Z,46.71
2023-03-29T15:10:03.508Z,46.09
2023-03-29T15:12:32.389Z,46.55
2023-03-29T15:15:02.512Z,46.88
2023-03-29T15:17:49.553Z,47.02
2023-03-29T15:20:23.318Z,46.94
2023-03-29T15:22:58.928Z,47.93
2023-03-29T15:25:29.362Z,48.79
2023-03-29T15:28:01.015Z,49.82
2023-03-29T15:30:37.868Z,50.48
2023-03-29T15:33:24.830Z,50.19
2023-03-29T15:35:54.670Z,48.72
2023-03-29T15:38:30.221Z,47.89
2023-03-29T15:41:02.465Z,48.69
2023-03-29T15:43:30.919Z,49.13
2023-03-29T15:45:58.877Z,50.03
2023-03-29T15:48:29.895Z,49.10
2023-03-29T15:51:00.122Z,48.76
2023-03-29T15:53:30.074Z,49.56
2023-03-29T15:56:02.541Z,48.78
2023-03-29T15:58:32.720Z,48.57
2023-03-29T16:01:12.401Z,49.36
2023-03-29T16:03:41.670Z,48.29
2023-03-29T16:06:12.425Z,49.08
2023-03-29T16:08:41.435Z,49.21
2023-03-29T16:11:09.378Z,48.45
2023-03-29T16:13:37.312Z,48.44
2023-03-29T16:16:05.975Z,48.88
2023-03-29T16:18:34.053Z,48.50
2023-03-29T16:21:03.604Z,48.85
2023-03-29T16:23:32.233Z,48.69
2023-03-29T16:26:00.275Z,48.22
2023-03-29T16:28:28.257Z,49.83
2023-03-29T16:30:56.170Z,49.07
2023-03-29T16:33:24.126Z,49.69
2023-03-29T16:35:52.321Z,49.81
2023-03-29T16:38:21.795Z,49.58
2023-03-29T16:40:49.826Z,48.87
2023-03-29T16:43:18.667Z,49.05
2023-03-29T16:45:46.630Z,49.26
2023-03-29T16:48:17.240Z,50.55
2023-03-29T16:50:45.782Z,50.94
2023-03-29T16:53:13.629Z,50.59
2023-03-29T16:55:42.853Z,50.42
2023-03-29T16:58:10.698Z,50.90
2023-03-29T17:00:38.824Z,50.49
2023-03-29T17:03:07.881Z,50.52
2023-03-29T17:05:41.441Z,50.37
2023-03-29T17:08:10.188Z,50.40
2023-03-29T17:10:40.621Z,49.94
2023-03-29T17:13:09.816Z,50.85
2023-03-29T17:15:39.722Z,51.16
2023-03-29T17:18:07.971Z,51.37
2023-03-29T17:20:35.966Z,52.61
2023-03-29T17:23:03.828Z,51.85
2023-03-29T17:25:31.708Z,52.49
2023-03-29T17:27:59.552Z,51.75
2023-03-29T17:30:28.845Z,52.80
2023-03-29T17:32:56.784Z,52.46
2023-03-29T17:35:24.733Z,52.31
2023-03-29T17:37:52.570Z,52.15
2023-03-29T17:40:20.457Z,52.31
2023-03-29T17:42:48.897Z,52.09
2023-03-29T17:45:17.259Z,52.67
2023-03-29T17:47:46.975Z,52.10
2023-03-29T17:50:14.964Z,52.27
2023-03-29T17:52:42.971Z,53.27
2023-03-29T17:55:13.680Z,52.96
2023-03-29T17:57:42.452Z,53.26
2023-03-29T18:00:13.359Z,53.45
2023-03-29T18:02:41.851Z,52.25
2023-03-29T18:05:11.718Z,53.00
2023-03-29T18:07:39.569Z,53.79
2023-03-29T18:10:08.708Z,53.91
2023-03-29T18:12:36.733Z,53.25
2023-03-29T18:15:05.040Z,52.71
2023-03-29T18:17:35.417Z,52.96
2023-03-29T18:20:06.230Z,54.29
2023-03-29T18:22:35.684Z,53.68
2023-03-29T18:25:05.560Z,53.10
2023-03-29T18:27:33.573Z,52.72
2023-03-29T18:30:02.207Z,53.20
2023-03-29T18:32:30.288Z,52.90
2023-03-29T18:34:58.294Z,53.02
2023-03-29T18:37:26.157Z,52.89
2023-03-29T18:39:55.626Z,52.97
2023-03-29T18:42:23.554Z,53.10
2023-03-29T18:44:51.849Z,52.98
2023-03-29T18:47:19.747Z,53.01
2023-03-29T18:49:48.033Z,53.21
2023-03-29T18:52:15.898Z,53.82
2023-03-29T18:54:43.735Z,54.12
2023-03-29T18:57:13.002Z,54.22
2023-03-29T18:59:40.948Z,54.40
2023-03-29T19:02:08.795Z,54.67
2023-03-29T19:04:36.758Z,54.07
2023-03-29T19:07:04.655Z,54.00
2023-03-29T19:09:32.683Z,54.50
2023-03-29T19:12:00.677Z,55.07
2023-03-29T19:14:30.110Z,54.89
2023-03-29T19:16:58.000Z,54.62
2023-03-29T19:19:26.433Z,54.56
2023-03-29T19:21:54.987Z,55.54
2023-03-29T19:24:23.054Z,55.03
2023-03-29T19:26:51.987Z,55.71
2023-03-29T19:29:19.978Z,55.17
2023-03-29T19:31:51.817Z,55.55
2023-03-29T19:34:22.889Z,54.80
2023-03-29T19:36:50.957Z,55.53
2023-03-29T19:39:18.983Z,55.32
2023-03-29T19:41:46.825Z,55.20
2023-03-29T19:44:14.716Z,55.43
2023-03-29T19:46:42.673Z,56.17
2023-03-29T19:49:13.676Z,55.55
2023-03-29T19:51:41.918Z,55.86
2023-03-29T19:54:12.665Z,56.16
2023-03-29T19:56:42.618Z,55.78
2023-03-29T19:59:11.237Z,56.01
2023-03-29T20:01:42.677Z,56.62
2023-03-29T20:04:12.035Z,56.98
2023-03-29T20:06:39.947Z,57.14
2023-03-29T20:09:07.911Z,56.77
2023-03-29T20:11:36.141Z,56.83
2023-03-29T20:14:04.015Z,57.03
2023-03-29T20:16:34.300Z,56.99
2023-03-29T20:19:02.609Z,56.49
2023-03-29T20:21:33.556Z,57.54
2023-03-29T20:24:01.596Z,56.54
2023-03-29T20:26:29.434Z,57.10
2023-03-29T20:28:57.324Z,56.53
2023-03-29T20:31:25.466Z,57.25
2023-03-29T20:33:53.687Z,57.89
2023-03-29T20:36:23.083Z,57.27
2023-03-29T20:38:52.580Z,56.94
2023-03-29T20:41:20.680Z,57.11
2023-03-29T20:43:48.606Z,56.92
2023-03-29T20:46:18.341Z,56.90
2023-03-29T20:48:53.176Z,56.62
2023-03-29T20:51:21.401Z,57.17
2023-03-29T20:53:50.650Z,57.37
2023-03-29T20:56:20.902Z,57.02
2023-03-29T20:58:48.897Z,57.46
2023-03-29T21:01:16.818Z,57.26
2023-03-29T21:03:45.015Z,57.94
2023-03-29T21:06:14.279Z,57.04
2023-03-29T21:08:43.678Z,57.72
2023-03-29T21:11:13.060Z,58.77
2023-03-29T21:13:42.595Z,58.16
2023-03-29T21:16:11.508Z,58.28
2023-03-29T21:18:41.612Z,58.73
2023-03-29T21:21:10.063Z,58.61
2023-03-29T21:23:38.644Z,58.03
2023-03-29T21:26:07.822Z,57.94
2023-03-29T21:28:37.572Z,58.49
2023-03-29T21:31:07.634Z,58.34
2023-03-29T21:33:36.183Z,58.76
2023-03-29T21:36:04.284Z,58.19
2023-03-29T21:38:32.289Z,58.45
2023-03-29T21:41:01.097Z,58.22
2023-03-29T21:43:29.087Z,58.38
2023-03-29T21:45:57.588Z,59.34
2023-03-29T21:48:27.212Z,59.81
2023-03-29T21:50:55.125Z,58.81
2023-03-29T21:53:24.555Z,59.72
2023-03-29T21:55:53.064Z,60.21
2023-03-29T21:58:21.569Z,60.57
2023-03-29T22:00:49.926Z,60.39
2023-03-29T22:03:18.080Z,60.13
2023-03-29T22:05:58.384Z,59.62
2023-03-29T22:08:26.990Z,59.88
2023-03-29T22:10:56.746Z,60.20
2023-03-29T22:13:26.115Z,59.80
2023-03-29T22:15:58.925Z,59.07
2023-03-29T22:18:27.953Z,59.37
2023-03-29T22:20:57.628Z,59.51
2023-03-29T22:23:25.761Z,60.73
2023-03-29T22:25:53.658Z,60.13
2023-03-29T22:28:21.592Z,60.31
2023-03-29T22:30:49.588Z,60.31
2023-03-29T22:33:17.490Z,60.81
2023-03-29T22:35:45.589Z,61.09
2023-03-29T22:38:14.837Z,61.01
2023-03-29T22:40:42.702Z,61.52
2023-03-29T22:43:10.575Z,61.35
2023-03-29T22:45:38.491Z,61.77
2023-03-29T22:48:06.736Z,61.45
2023-03-29T22:50:34.727Z,61.42
2023-03-29T22:53:02.861Z,61.50
2023-03-29T22:55:32.316Z,62.19
2023-03-29T22:58:00.423Z,62.01
2023-03-29T23:00:28.533Z,61.67
2023-03-29T23:02:56.959Z,61.44
2023-03-29T23:05:24.946Z,61.64
2023-03-29T23:07:53.064Z,62.10
2023-03-29T23:10:21.012Z,62.31
2023-03-29T23:12:50.481Z,62.43
2023-03-29T23:15:22.766Z,63.28
2023-03-29T23:17:50.778Z,62.97
2023-03-29T23:20:21.010Z,63.22
2023-03-29T23:22:48.993Z,63.02
2023-03-29T23:25:16.983Z,63.21
2023-03-29T23:27:44.851Z,63.09
2023-03-29T23:30:14.345Z,62.69
2023-03-29T23:32:42.669Z,63.01
2023-03-29T23:35:10.771Z,63.21
2023-03-29T23:37:39.436Z,63.36
2023-03-29T23:40:11.629Z,63.54
2023-03-29T23:42:40.115Z,63.00
2023-03-29T23:45:08.964Z,63.56
2023-03-29T23:47:38.342Z,63.68
2023-03-29T23:50:08.430Z,64.02
2023-03-29T23:52:37.034Z,63.98
2023-03-29T23:55:05.669Z,64.77
2023-03-29T23:57:35.021Z,64.59
